Time;durP1;ratioP1;P1;durP2;ratioP2;P2;SDS_P1;SDS_P2;PMS_P1;PMS_P2;Temp;Humidity;BMP_temperature;BMP_pressure;BME280_temperature;BME280_humidity;BME280_pressure;Samples;Min_cycle;Max_cycle;Signal;HPM_P1;HPM_P2
2022/06/19 00:01:36;;;;;;;9.35;3.35;;;;;;;;;;5036390;28;20128;-91
2022/06/19 00:04:04;;;;;;;10.57;3.33;;;;;;;;;;5036078;28;20422;-91
2022/06/19 00:06:33;;;;;;;10.50;3.47;;;;;;;;;;5035972;28;20586;-90
2022/06/19 00:09:00;;;;;;;11.00;3.83;;;;;;;;;;5035800;28;20545;-90
2022/06/19 00:11:27;;;;;;;15.50;4.07;;;;;;;;;;5037542;28;20136;-91
2022/06/19 00:13:56;;;;;;;11.27;3.53;;;;;;;;;;5038939;28;20045;-91
2022/06/19 00:16:23;;;;;;;8.85;3.70;;;;;;;;;;5035930;28;20456;-91
2022/06/19 00:18:50;;;;;;;10.85;3.83;;;;;;;;;;5035942;28;20508;-89
2022/06/19 00:21:17;;;;;;;11.75;3.40;;;;;;;;;;5035635;28;20059;-91
2022/06/19 00:23:45;;;;;;;15.23;3.90;;;;;;;;;;5035532;28;20081;-90
2022/06/19 00:26:14;;;;;;;15.40;3.80;;;;;;;;;;5035480;28;20454;-91
2022/06/19 00:28:41;;;;;;;14.40;3.97;;;;;;;;;;5035834;28;20052;-91
2022/06/19 00:31:08;;;;;;;9.80;3.70;;;;;;;;;;5035617;28;20143;-91
2022/06/19 00:33:36;;;;;;;8.75;3.33;;;;;;;;;;5035673;28;20057;-91
2022/06/19 00:36:03;;;;;;;9.48;3.28;;;;;;;;;;5035131;28;20080;-91
2022/06/19 00:38:31;;;;;;;12.98;3.58;;;;;;;;;;5035217;28;20584;-91
2022/06/19 00:40:58;;;;;;;11.48;3.70;;;;;;;;;;5035816;28;20055;-91
2022/06/19 00:43:26;;;;;;;7.43;3.47;;;;;;;;;;5035599;28;20056;-91
2022/06/19 00:45:54;;;;;;;14.15;3.70;;;;;;;;;;5035383;28;20136;-91
2022/06/19 00:48:23;;;;;;;12.40;3.90;;;;;;;;;;5035266;28;20486;-91
2022/06/19 00:50:51;;;;;;;14.25;3.78;;;;;;;;;;5035085;28;20136;-91
2022/06/19 00:53:21;;;;;;;11.93;3.95;;;;;;;;;;5035487;28;20103;-91
2022/06/19 00:55:49;;;;;;;12.93;3.97;;;;;;;;;;5035175;28;20456;-91
2022/06/19 00:58:21;;;;;;;11.60;3.63;;;;;;;;;;5035405;28;20135;-91
2022/06/19 01:00:51;;;;;;;14.10;3.92;;;;;;;;;;5035138;28;20107;-91
2022/06/19 01:03:20;;;;;;;11.27;4.30;;;;;;;;;;5035691;28;20466;-91
2022/06/19 01:05:48;;;;;;;9.43;3.97;;;;;;;;;;5039459;28;20067;-91
2022/06/19 01:08:15;;;;;;;12.02;4.13;;;;;;;;;;5039242;28;20144;-91
2022/06/19 01:10:45;;;;;;;11.43;3.92;;;;;;;;;;5038994;28;20141;-90
2022/06/19 01:13:14;;;;;;;8.43;3.75;;;;;;;;;;5039241;28;20083;-91
2022/06/19 01:15:42;;;;;;;14.93;3.97;;;;;;;;;;5038815;28;20135;-91
2022/06/19 01:18:09;;;;;;;17.20;4.40;;;;;;;;;;5039042;28;20429;-91
2022/06/19 01:20:38;;;;;;;11.15;4.13;;;;;;;;;;5039055;28;20599;-91
2022/06/19 01:23:24;;;;;;;10.80;4.05;;;;;;;;;;5038915;28;20100;-91
2022/06/19 01:25:51;;;;;;;16.30;4.78;;;;;;;;;;5038487;28;20424;-91
2022/06/19 01:31:15;;;;;;;6.85;3.70;;;;;;;;;;5056586;28;20489;-91
2022/06/19 01:33:44;;;;;;;13.43;3.97;;;;;;;;;;5060972;28;20056;-91
2022/06/19 01:36:14;;;;;;;11.75;4.18;;;;;;;;;;5040087;28;20406;-91
2022/06/19 01:38:46;;;;;;;17.65;4.50;;;;;;;;;;5038414;28;20136;-90
2022/06/19 01:41:14;;;;;;;12.13;4.38;;;;;;;;;;5056160;28;20048;-91
2022/06/19 01:43:42;;;;;;;8.80;4.00;;;;;;;;;;5038251;28;20049;-90
2022/06/19 01:46:09;;;;;;;10.68;4.07;;;;;;;;;;5038355;28;20052;-91
2022/06/19 01:48:38;;;;;;;11.32;4.13;;;;;;;;;;5038739;28;20145;-91
2022/06/19 01:51:06;;;;;;;12.70;4.57;;;;;;;;;;5038301;28;20123;-91
2022/06/19 01:53:37;;;;;;;13.88;4.43;;;;;;;;;;5038290;28;20060;-91
2022/06/19 01:56:07;;;;;;;21.35;4.40;;;;;;;;;;5038351;28;20135;-91
2022/06/19 01:58:35;;;;;;;13.40;4.45;;;;;;;;;;5039449;28;20144;-91
2022/06/19 02:01:04;;;;;;;13.23;3.78;;;;;;;;;;5038562;28;20111;-91
2022/06/19 02:03:35;;;;;;;12.82;4.03;;;;;;;;;;5037407;28;20052;-89
2022/06/19 02:06:02;;;;;;;16.13;3.88;;;;;;;;;;5038153;28;20377;-91
2022/06/19 02:08:30;;;;;;;12.15;3.95;;;;;;;;;;5055864;28;20335;-91
2022/06/19 02:10:58;;;;;;;16.27;4.47;;;;;;;;;;5055709;28;20041;-91
2022/06/19 02:13:25;;;;;;;16.23;4.63;;;;;;;;;;5038149;28;20053;-91
2022/06/19 02:15:53;;;;;;;14.35;4.03;;;;;;;;;;5036307;28;20049;-89
2022/06/19 02:18:26;;;;;;;13.18;4.20;;;;;;;;;;5037806;28;20053;-92
2022/06/19 02:20:53;;;;;;;14.23;4.80;;;;;;;;;;5037877;28;20140;-90
2022/06/19 02:23:21;;;;;;;16.52;4.30;;;;;;;;;;5055476;28;20091;-89
2022/06/19 02:25:48;;;;;;;12.45;4.50;;;;;;;;;;5055053;28;20084;-93
2022/06/19 02:28:16;;;;;;;11.77;4.43;;;;;;;;;;5037521;28;20136;-91
2022/06/19 02:30:44;;;;;;;15.90;4.18;;;;;;;;;;5037590;28;20057;-93
2022/06/19 02:33:13;;;;;;;7.30;3.83;;;;;;;;;;5037427;28;20552;-91
2022/06/19 02:35:40;;;;;;;12.90;3.45;;;;;;;;;;5037583;28;20068;-90
2022/06/19 02:38:08;;;;;;;14.85;3.78;;;;;;;;;;5037466;28;20151;-88
2022/06/19 02:40:54;;;;;;;15.82;4.15;;;;;;;;;;5037898;28;20110;-90
2022/06/19 02:43:26;;;;;;;13.68;3.72;;;;;;;;;;5054971;28;20049;-87
2022/06/19 02:45:53;;;;;;;12.63;3.53;;;;;;;;;;5055023;28;20175;-89
2022/06/19 02:48:26;;;;;;;14.18;4.43;;;;;;;;;;5055280;28;20048;-90
2022/06/19 02:50:54;;;;;;;20.40;4.00;;;;;;;;;;5037817;28;20139;-89
2022/06/19 02:53:21;;;;;;;19.98;4.05;;;;;;;;;;5042687;28;20049;-89
2022/06/19 02:55:49;;;;;;;10.43;3.90;;;;;;;;;;5038260;28;20063;-85
2022/06/19 02:58:19;;;;;;;14.80;3.75;;;;;;;;;;5055131;28;20053;-92
2022/06/19 03:00:51;;;;;;;13.70;3.50;;;;;;;;;;5037065;28;20111;-89
2022/06/19 03:03:23;;;;;;;16.38;3.53;;;;;;;;;;5037196;28;20496;-91
2022/06/19 03:05:50;;;;;;;12.05;3.75;;;;;;;;;;5036728;28;20044;-91
2022/06/19 03:08:17;;;;;;;14.02;3.83;;;;;;;;;;5036871;28;20095;-88
2022/06/19 03:10:44;;;;;;;12.40;3.45;;;;;;;;;;5036876;28;20459;-90
2022/06/19 03:13:11;;;;;;;15.02;3.63;;;;;;;;;;5037195;28;20084;-91
2022/06/19 03:15:39;;;;;;;15.82;4.03;;;;;;;;;;5036798;28;20072;-89
2022/06/19 03:18:06;;;;;;;15.52;3.97;;;;;;;;;;5037070;28;20131;-90
2022/06/19 03:20:34;;;;;;;9.68;3.80;;;;;;;;;;5054040;28;20075;-91
2022/06/19 03:23:01;;;;;;;12.60;4.00;;;;;;;;;;5036487;28;20107;-92
2022/06/19 03:25:28;;;;;;;15.27;3.97;;;;;;;;;;5053996;28;20048;-92
2022/06/19 03:27:57;;;;;;;9.98;3.80;;;;;;;;;;5035796;28;20084;-90
2022/06/19 03:30:24;;;;;;;10.82;4.03;;;;;;;;;;5036518;28;20085;-93
2022/06/19 03:32:51;;;;;;;10.30;3.47;;;;;;;;;;5036268;28;20127;-92
2022/06/19 03:35:18;;;;;;;10.32;4.25;;;;;;;;;;5053682;28;20053;-90
2022/06/19 03:37:46;;;;;;;14.98;3.70;;;;;;;;;;5036880;28;20087;-92
2022/06/19 03:40:14;;;;;;;13.98;4.00;;;;;;;;;;5038054;28;20056;-89
2022/06/19 03:42:41;;;;;;;11.15;3.63;;;;;;;;;;5036527;28;20124;-91
2022/06/19 03:45:08;;;;;;;10.68;3.88;;;;;;;;;;5036390;28;20118;-92
2022/06/19 03:47:36;;;;;;;10.00;3.40;;;;;;;;;;5036044;28;20084;-91
2022/06/19 03:50:04;;;;;;;12.75;3.72;;;;;;;;;;5036152;28;20139;-90
2022/06/19 03:52:31;;;;;;;9.52;4.18;;;;;;;;;;5035974;28;20106;-91
2022/06/19 03:54:58;;;;;;;15.77;4.65;;;;;;;;;;5035884;28;20489;-90
2022/06/19 03:57:25;;;;;;;9.80;3.95;;;;;;;;;;5036131;28;20084;-93
2022/06/19 03:59:52;;;;;;;14.05;3.85;;;;;;;;;;5035592;28;20055;-88
2022/06/19 04:02:20;;;;;;;9.88;3.50;;;;;;;;;;5053183;28;20065;-93
2022/06/19 04:04:47;;;;;;;10.35;3.60;;;;;;;;;;5035842;28;20044;-90
2022/06/19 04:07:15;;;;;;;9.32;3.28;;;;;;;;;;5035719;28;20072;-91
2022/06/19 04:09:44;;;;;;;11.82;3.40;;;;;;;;;;5036239;28;20075;-91
2022/06/19 04:12:12;;;;;;;9.88;3.40;;;;;;;;;;5059355;28;20064;-90
2022/06/19 04:14:40;;;;;;;13.73;4.10;;;;;;;;;;5038902;28;20059;-91
2022/06/19 04:17:07;;;;;;;15.98;3.58;;;;;;;;;;5053178;28;20053;-88
2022/06/19 04:19:35;;;;;;;14.15;3.55;;;;;;;;;;5035822;28;20107;-93
2022/06/19 04:22:03;;;;;;;10.43;3.70;;;;;;;;;;5035425;28;20053;-87
2022/06/19 04:24:30;;;;;;;11.90;3.97;;;;;;;;;;5035729;28;20041;-90
2022/06/19 04:26:57;;;;;;;15.80;4.78;;;;;;;;;;5035464;28;20045;-91
2022/06/19 04:29:25;;;;;;;11.45;4.53;;;;;;;;;;5052904;28;20057;-90
2022/06/19 04:31:55;;;;;;;10.95;5.22;;;;;;;;;;5035387;28;20135;-91
2022/06/19 04:34:23;;;;;;;11.60;4.10;;;;;;;;;;5035645;28;20049;-90
2022/06/19 04:36:51;;;;;;;4.70;2.30;;;;;;;;;;5035648;28;20045;-91
2022/06/19 04:39:18;;;;;;;6.97;2.10;;;;;;;;;;5037453;28;20465;-86
2022/06/19 04:41:46;;;;;;;5.22;1.90;;;;;;;;;;5039110;28;20132;-87
2022/06/19 04:44:16;;;;;;;5.43;1.80;;;;;;;;;;5038923;28;20620;-88
2022/06/19 04:46:43;;;;;;;4.00;1.90;;;;;;;;;;5039747;28;20098;-89
2022/06/19 04:49:12;;;;;;;5.25;1.80;;;;;;;;;;5039490;28;20091;-89
2022/06/19 04:51:39;;;;;;;5.28;1.63;;;;;;;;;;5038998;28;20132;-88
2022/06/19 04:54:06;;;;;;;5.38;1.60;;;;;;;;;;5039140;28;20049;-87
2022/06/19 04:56:33;;;;;;;8.45;2.30;;;;;;;;;;5038685;28;20139;-89
2022/06/19 04:59:01;;;;;;;4.35;1.80;;;;;;;;;;5056751;28;20045;-84
2022/06/19 05:01:35;;;;;;;7.32;1.60;;;;;;;;;;5056507;28;20052;-90
2022/06/19 05:04:04;;;;;;;10.60;1.70;;;;;;;;;;5038937;28;20072;-87
2022/06/19 05:06:32;;;;;;;3.75;1.52;;;;;;;;;;5039175;28;20053;-88
2022/06/19 05:08:59;;;;;;;6.07;1.63;;;;;;;;;;5038937;28;20076;-91
2022/06/19 05:11:27;;;;;;;8.98;1.95;;;;;;;;;;5056764;28;20492;-87
2022/06/19 05:13:55;;;;;;;5.28;1.73;;;;;;;;;;5039693;28;20172;-88
2022/06/19 05:16:24;;;;;;;7.80;1.95;;;;;;;;;;5038848;28;20052;-92
2022/06/19 05:18:53;;;;;;;1.45;1.35;;;;;;;;;;5038992;28;20049;-85
2022/06/19 05:21:21;;;;;;;4.30;1.27;;;;;;;;;;5039074;28;20063;-90
2022/06/19 05:23:49;;;;;;;4.20;2.03;;;;;;;;;;5038659;28;20573;-88
2022/06/19 05:26:20;;;;;;;5.18;1.38;;;;;;;;;;5039115;28;20045;-93
2022/06/19 05:28:48;;;;;;;8.82;1.42;;;;;;;;;;5038237;28;20572;-87
2022/06/19 05:31:16;;;;;;;2.92;1.20;;;;;;;;;;5044192;28;20076;-88
2022/06/19 05:33:44;;;;;;;1.70;1.23;;;;;;;;;;5047481;28;20056;-87
2022/06/19 05:36:11;;;;;;;6.57;2.50;;;;;;;;;;5041844;28;20127;-83
2022/06/19 05:38:39;;;;;;;1.95;1.20;;;;;;;;;;5038460;28;20041;-88
2022/06/19 05:41:06;;;;;;;6.15;1.50;;;;;;;;;;5038768;28;20140;-85
2022/06/19 05:43:34;;;;;;;3.50;1.33;;;;;;;;;;5038365;28;20580;-88
2022/06/19 05:46:03;;;;;;;3.95;1.40;;;;;;;;;;5038364;28;20134;-87
2022/06/19 05:48:30;;;;;;;4.63;1.30;;;;;;;;;;5038423;28;20052;-85
2022/06/19 05:51:05;;;;;;;6.03;1.50;;;;;;;;;;5037646;28;20131;-89
2022/06/19 05:53:34;;;;;;;3.17;1.63;;;;;;;;;;5038736;28;20128;-91
2022/06/19 05:56:03;;;;;;;4.40;1.40;;;;;;;;;;5055668;28;20081;-84
2022/06/19 05:58:30;;;;;;;9.38;1.65;;;;;;;;;;5038638;28;20052;-89
2022/06/19 06:00:58;;;;;;;4.90;1.63;;;;;;;;;;5037757;28;20056;-89
2022/06/19 06:03:26;;;;;;;3.95;1.55;;;;;;;;;;5037813;28;20132;-87
2022/06/19 06:05:53;;;;;;;3.92;1.45;;;;;;;;;;5055327;28;20140;-86
2022/06/19 06:08:20;;;;;;;7.35;1.50;;;;;;;;;;5037974;28;20075;-85
2022/06/19 06:10:49;;;;;;;3.83;1.70;;;;;;;;;;5055359;28;20059;-87
2022/06/19 06:13:17;;;;;;;6.10;1.67;;;;;;;;;;5038083;28;20459;-90
2022/06/19 06:15:48;;;;;;;4.13;1.45;;;;;;;;;;5037394;28;20144;-90
2022/06/19 06:18:16;;;;;;;3.35;1.80;;;;;;;;;;5055570;28;20064;-84
2022/06/19 06:20:44;;;;;;;6.03;1.52;;;;;;;;;;5056281;28;20102;-89
2022/06/19 06:23:11;;;;;;;7.90;2.05;;;;;;;;;;5036598;28;20095;-89
2022/06/19 06:25:40;;;;;;;4.35;1.60;;;;;;;;;;5037766;28;20052;-90
2022/06/19 06:28:13;;;;;;;13.45;1.80;;;;;;;;;;5055443;28;20049;-91
2022/06/19 06:30:42;;;;;;;8.68;1.88;;;;;;;;;;5037566;28;20581;-90
2022/06/19 06:33:09;;;;;;;7.93;1.63;;;;;;;;;;5038039;28;20052;-92
2022/06/19 06:35:36;;;;;;;4.88;2.03;;;;;;;;;;5037775;28;20462;-88
2022/06/19 06:38:04;;;;;;;7.85;2.00;;;;;;;;;;5038107;28;20521;-90
2022/06/19 06:40:32;;;;;;;9.68;1.40;;;;;;;;;;5037713;28;20083;-91
2022/06/19 06:42:59;;;;;;;6.72;1.52;;;;;;;;;;5037371;28;20073;-89
2022/06/19 06:45:26;;;;;;;6.38;1.75;;;;;;;;;;5037900;28;20137;-89
2022/06/19 06:47:54;;;;;;;8.55;1.92;;;;;;;;;;5037444;28;20486;-91
2022/06/19 06:50:21;;;;;;;6.35;1.48;;;;;;;;;;5037964;28;20053;-89
2022/06/19 06:52:52;;;;;;;5.10;1.50;;;;;;;;;;5040194;28;20451;-88
2022/06/19 06:55:19;;;;;;;6.45;1.58;;;;;;;;;;5040330;28;20124;-90
2022/06/19 06:57:46;;;;;;;4.63;1.73;;;;;;;;;;5037447;28;20597;-89
2022/06/19 07:00:19;;;;;;;6.20;1.77;;;;;;;;;;5037130;28;20139;-89
2022/06/19 07:02:46;;;;;;;6.23;1.50;;;;;;;;;;5036795;28;20088;-88
2022/06/19 07:05:13;;;;;;;7.18;1.60;;;;;;;;;;5036969;28;20485;-88
2022/06/19 07:07:40;;;;;;;8.35;1.60;;;;;;;;;;5036028;28;20075;-90
2022/06/19 07:10:08;;;;;;;5.00;1.58;;;;;;;;;;5037422;28;20055;-87
2022/06/19 07:12:35;;;;;;;8.77;1.40;;;;;;;;;;5037620;28;20136;-94
2022/06/19 07:15:03;;;;;;;9.63;1.67;;;;;;;;;;5037138;28;20148;-90
2022/06/19 07:17:30;;;;;;;6.18;1.65;;;;;;;;;;5036792;28;20076;-88
2022/06/19 07:19:57;;;;;;;5.90;1.52;;;;;;;;;;5036883;28;20136;-87
2022/06/19 07:22:24;;;;;;;9.27;2.00;;;;;;;;;;5037119;28;20087;-87
2022/06/19 07:24:51;;;;;;;5.88;2.00;;;;;;;;;;5036810;28;20045;-86
2022/06/19 07:27:18;;;;;;;18.08;2.53;;;;;;;;;;5036524;28;20055;-87
2022/06/19 07:29:47;;;;;;;10.32;2.15;;;;;;;;;;5037069;28;20049;-89
2022/06/19 07:32:14;;;;;;;14.90;2.05;;;;;;;;;;5036527;28;20059;-88
2022/06/19 07:34:42;;;;;;;10.15;2.00;;;;;;;;;;5036642;28;20112;-86
2022/06/19 07:37:11;;;;;;;14.40;2.50;;;;;;;;;;5037178;28;20083;-91
2022/06/19 07:39:39;;;;;;;11.32;2.28;;;;;;;;;;5036828;28;20140;-88
2022/06/19 07:42:08;;;;;;;9.57;2.13;;;;;;;;;;5036500;28;20416;-90
2022/06/19 07:44:36;;;;;;;10.50;2.17;;;;;;;;;;5036671;28;20073;-90
2022/06/19 07:50:09;;;;;;;10.77;2.25;;;;;;;;;;5056323;28;20056;-88
2022/06/19 07:52:40;;;;;;;10.50;2.33;;;;;;;;;;5037251;28;20136;-89
2022/06/19 07:55:07;;;;;;;11.40;2.28;;;;;;;;;;5054193;28;20061;-88
2022/06/19 07:57:35;;;;;;;8.43;2.03;;;;;;;;;;5036280;28;20049;-93
2022/06/19 08:00:03;;;;;;;11.65;2.20;;;;;;;;;;5036393;28;20144;-94
2022/06/19 08:02:31;;;;;;;11.32;2.22;;;;;;;;;;5032709;28;20113;-88
2022/06/19 08:04:58;;;;;;;9.82;2.35;;;;;;;;;;5032510;28;20057;-90
2022/06/19 08:07:25;;;;;;;16.30;2.92;;;;;;;;;;5033064;28;20056;-92
2022/06/19 08:09:53;;;;;;;10.93;2.15;;;;;;;;;;5032966;28;20132;-88
2022/06/19 08:12:20;;;;;;;12.73;2.65;;;;;;;;;;5034522;28;20557;-88
2022/06/19 08:14:48;;;;;;;11.18;2.60;;;;;;;;;;5037022;28;20057;-87
2022/06/19 08:17:15;;;;;;;12.93;2.65;;;;;;;;;;5033111;28;20136;-89
2022/06/19 08:19:43;;;;;;;11.68;2.28;;;;;;;;;;5032697;28;20410;-89
2022/06/19 08:22:10;;;;;;;9.85;2.40;;;;;;;;;;5032627;28;20076;-89
2022/06/19 08:24:37;;;;;;;49.92;6.70;;;;;;;;;;5033207;28;20565;-89
2022/06/19 08:27:05;;;;;;;16.85;2.88;;;;;;;;;;5032879;28;20049;-91
2022/06/19 08:29:32;;;;;;;12.43;2.35;;;;;;;;;;5032562;28;20056;-88
2022/06/19 08:32:00;;;;;;;14.93;2.75;;;;;;;;;;5032414;28;20648;-90
2022/06/19 08:34:28;;;;;;;8.48;2.08;;;;;;;;;;5032550;28;20059;-90
2022/06/19 08:36:56;;;;;;;17.55;2.63;;;;;;;;;;5032866;28;20049;-90
2022/06/19 08:39:24;;;;;;;13.25;2.50;;;;;;;;;;5033175;28;20049;-88
2022/06/19 08:42:04;;;;;;;10.45;2.10;;;;;;;;;;5033295;28;20137;-95
2022/06/19 08:44:40;;;;;;;11.88;2.30;;;;;;;;;;5032634;28;20136;-85
2022/06/19 08:47:25;;;;;;;8.98;2.00;;;;;;;;;;5033334;28;20568;-91
2022/06/19 08:49:52;;;;;;;12.32;2.40;;;;;;;;;;5032704;28;20072;-90
2022/06/19 08:52:32;;;;;;;15.48;2.75;;;;;;;;;;5032106;28;20080;-91
2022/06/19 08:55:07;;;;;;;13.68;2.30;;;;;;;;;;5032203;28;20080;-88
2022/06/19 08:57:40;;;;;;;13.80;3.10;;;;;;;;;;5032284;28;20053;-92
2022/06/19 09:00:40;;;;;;;11.80;3.40;;;;;;;;;;5032636;28;20084;-90
2022/06/19 09:03:17;;;;;;;12.88;2.35;;;;;;;;;;4981086;28;20061;-89
2022/06/19 09:05:47;;;;;;;8.60;2.47;;;;;;;;;;5032955;28;20489;-89
2022/06/19 09:08:26;;;;;;;15.13;2.60;;;;;;;;;;5032901;28;20147;-92
2022/06/19 09:11:02;;;;;;;11.85;2.55;;;;;;;;;;5032406;28;20109;-88
2022/06/19 09:13:42;;;;;;;10.52;2.40;;;;;;;;;;5032198;28;20054;-89
2022/06/19 09:16:16;;;;;;;12.63;2.88;;;;;;;;;;5032459;28;20520;-91
2022/06/19 09:18:49;;;;;;;11.18;2.58;;;;;;;;;;5032282;28;20453;-91
2022/06/19 09:21:36;;;;;;;8.45;2.78;;;;;;;;;;5032420;28;20136;-91
2022/06/19 09:24:14;;;;;;;17.75;3.10;;;;;;;;;;5035241;28;20049;-92
2022/06/19 09:26:50;;;;;;;12.07;2.42;;;;;;;;;;5035929;28;20136;-92
2022/06/19 09:29:20;;;;;;;8.88;2.30;;;;;;;;;;5036608;28;20077;-92
2022/06/19 09:31:48;;;;;;;13.20;2.67;;;;;;;;;;5036920;28;20057;-92
2022/06/19 09:34:21;;;;;;;14.52;2.67;;;;;;;;;;5036968;28;20508;-90
2022/06/19 09:37:00;;;;;;;12.93;2.53;;;;;;;;;;5042225;28;20569;-92
2022/06/19 09:39:36;;;;;;;7.43;2.65;;;;;;;;;;5042087;28;20248;-91
2022/06/19 09:42:09;;;;;;;8.88;2.80;;;;;;;;;;5035388;28;20053;-92
2022/06/19 09:44:39;;;;;;;10.80;3.03;;;;;;;;;;5035535;28;20050;-88
2022/06/19 09:47:10;;;;;;;9.63;2.70;;;;;;;;;;5037529;28;20057;-90
2022/06/19 09:49:42;;;;;;;10.25;2.50;;;;;;;;;;5035579;28;20053;-89
2022/06/19 09:52:12;;;;;;;10.73;2.58;;;;;;;;;;5038471;28;20084;-93
2022/06/19 09:54:42;;;;;;;10.70;2.63;;;;;;;;;;5035456;28;20077;-91
2022/06/19 09:57:16;;;;;;;9.30;2.72;;;;;;;;;;5035978;28;20220;-94
2022/06/19 09:59:58;;;;;;;15.10;2.90;;;;;;;;;;5038219;28;20490;-94
2022/06/19 10:02:33;;;;;;;11.27;3.15;;;;;;;;;;5035771;28;20540;-90
2022/06/19 10:05:12;;;;;;;10.00;2.78;;;;;;;;;;5037032;28;20057;-88
2022/06/19 10:07:45;;;;;;;8.15;2.80;;;;;;;;;;5035180;28;20140;-94
2022/06/19 10:10:12;;;;;;;;;;;;;;;;;;5036443;28;20136;-91
2022/06/19 10:12:42;;;;;;;11.52;2.75;;;;;;;;;;5035414;28;19921;-88
2022/06/19 10:15:15;;;;;;;7.82;2.88;;;;;;;;;;5034945;28;20050;-88
2022/06/19 10:17:54;;;;;;;15.60;3.17;;;;;;;;;;5034625;28;20055;-88
2022/06/19 10:20:26;;;;;;;13.57;2.63;;;;;;;;;;5035515;28;20057;-90
2022/06/19 10:22:53;;;;;;;10.37;3.33;;;;;;;;;;5035509;28;20084;-90
2022/06/19 10:25:32;;;;;;;12.55;3.00;;;;;;;;;;5034716;28;20132;-86
2022/06/19 10:28:12;;;;;;;11.95;2.85;;;;;;;;;;5034519;28;20072;-90
2022/06/19 10:30:50;;;;;;;9.18;2.80;;;;;;;;;;5035470;28;20139;-89
2022/06/19 10:33:24;;;;;;;8.57;2.97;;;;;;;;;;5035275;28;20061;-89
2022/06/19 10:35:57;;;;;;;13.80;3.30;;;;;;;;;;5034476;28;20132;-89
2022/06/19 10:38:34;;;;;;;15.38;3.13;;;;;;;;;;5034803;28;20100;-91
2022/06/19 10:41:01;;;;;;;13.65;3.20;;;;;;;;;;5034694;28;20107;-88
2022/06/19 10:43:37;;;;;;;9.90;3.40;;;;;;;;;;5034735;28;20107;-91
2022/06/19 10:46:09;;;;;;;10.68;2.95;;;;;;;;;;5034643;28;20056;-87
2022/06/19 10:48:58;;;;;;;9.40;2.95;;;;;;;;;;5034243;28;20045;-95
2022/06/19 10:51:35;;;;;;;14.73;3.20;;;;;;;;;;5034200;28;20136;-93
2022/06/19 10:54:08;;;;;;;19.60;3.53;;;;;;;;;;5035355;28;20132;-93
2022/06/19 10:56:38;;;;;;;12.23;2.70;;;;;;;;;;5034373;28;20049;-92
2022/06/19 10:59:07;;;;;;;16.45;3.08;;;;;;;;;;5034455;28;20047;-92
2022/06/19 11:04:24;;;;;;;15.27;3.47;;;;;;;;;;5039546;28;20041;-90
2022/06/19 11:06:59;;;;;;;15.98;3.63;;;;;;;;;;5035771;28;20061;-92
2022/06/19 11:09:36;;;;;;;18.13;3.97;;;;;;;;;;5034523;28;20493;-90
2022/06/19 11:12:22;;;;;;;17.90;3.22;;;;;;;;;;5033641;28;20163;-89
2022/06/19 11:14:57;;;;;;;10.18;2.72;;;;;;;;;;5033441;28;20137;-87
2022/06/19 11:17:33;;;;;;;10.95;3.22;;;;;;;;;;5034966;28;20049;-87
2022/06/19 11:20:24;;;;;;;15.10;3.47;;;;;;;;;;5033924;28;20469;-87
2022/06/19 11:22:58;;;;;;;16.92;3.83;;;;;;;;;;5033778;28;20566;-88
2022/06/19 11:25:30;;;;;;;15.52;3.38;;;;;;;;;;5033928;28;20092;-91
2022/06/19 11:28:03;;;;;;;18.90;3.63;;;;;;;;;;5033853;28;20438;-87
2022/06/19 11:30:34;;;;;;;14.07;4.05;;;;;;;;;;5034033;28;20048;-88
2022/06/19 11:33:03;;;;;;;14.07;3.67;;;;;;;;;;5033314;28;20545;-91
2022/06/19 11:35:38;;;;;;;10.38;3.65;;;;;;;;;;5033500;28;20081;-88
2022/06/19 11:38:06;;;;;;;10.35;3.50;;;;;;;;;;5033236;28;20137;-90
2022/06/19 11:40:36;;;;;;;13.88;3.28;;;;;;;;;;5033267;28;20469;-92
2022/06/19 11:43:04;;;;;;;15.82;3.78;;;;;;;;;;5033704;28;20549;-90
2022/06/19 11:45:37;;;;;;;14.63;3.88;;;;;;;;;;5033691;28;20129;-87
2022/06/19 11:48:07;;;;;;;16.80;3.55;;;;;;;;;;5032991;28;20060;-89
2022/06/19 11:50:35;;;;;;;18.77;4.38;;;;;;;;;;5034813;28;20107;-93
2022/06/19 11:53:09;;;;;;;17.23;3.83;;;;;;;;;;5034107;28;20058;-86
2022/06/19 11:55:37;;;;;;;12.82;3.65;;;;;;;;;;5033303;28;20132;-88
2022/06/19 11:58:22;;;;;;;8.77;3.30;;;;;;;;;;5032373;28;20570;-94
2022/06/19 12:01:08;;;;;;;14.23;4.03;;;;;;;;;;5033229;28;20049;-89
2022/06/19 12:03:39;;;;;;;15.48;3.80;;;;;;;;;;5033628;28;20502;-88
2022/06/19 12:06:08;;;;;;;13.18;4.05;;;;;;;;;;5033703;28;20073;-88
2022/06/19 12:08:39;;;;;;;13.50;4.00;;;;;;;;;;5032944;28;20417;-88
2022/06/19 12:11:07;;;;;;;13.40;3.55;;;;;;;;;;5033260;28;20080;-88
2022/06/19 12:13:37;;;;;;;18.60;3.90;;;;;;;;;;5035407;28;20049;-91
2022/06/19 12:16:17;;;;;;;15.27;3.85;;;;;;;;;;5032791;28;20454;-90
2022/06/19 12:18:44;;;;;;;12.05;3.50;;;;;;;;;;5032764;28;20049;-92
2022/06/19 12:21:23;;;;;;;10.68;3.58;;;;;;;;;;5032757;28;20091;-89
2022/06/19 12:24:10;;;;;;;14.90;3.67;;;;;;;;;;5034379;28;20072;-87
2022/06/19 12:26:38;;;;;;;10.57;3.50;;;;;;;;;;5034460;28;20046;-89
2022/06/19 12:29:24;;;;;;;17.27;4.20;;;;;;;;;;5036322;28;20069;-92
2022/06/19 12:31:52;;;;;;;15.52;3.78;;;;;;;;;;5035091;28;20581;-87
2022/06/19 12:34:26;;;;;;;11.38;3.55;;;;;;;;;;5032831;28;20049;-87
2022/06/19 12:36:55;;;;;;;11.65;3.50;;;;;;;;;;5032972;28;20124;-89
2022/06/19 12:39:23;;;;;;;22.20;4.57;;;;;;;;;;5032559;28;20144;-87
2022/06/19 12:42:02;;;;;;;15.52;3.85;;;;;;;;;;5032381;28;20132;-87
2022/06/19 12:44:45;;;;;;;13.65;4.05;;;;;;;;;;5032930;28;20140;-89
2022/06/19 12:47:21;;;;;;;15.23;3.72;;;;;;;;;;5032638;28;20071;-88
2022/06/19 12:49:55;;;;;;;13.98;3.95;;;;;;;;;;5033186;28;20060;-88
2022/06/19 12:52:22;;;;;;;;;;;;;;;;;;5036643;28;20076;-89
2022/06/19 12:55:13;;;;;;;19.75;4.15;;;;;;;;;;5045021;28;19932;-87
2022/06/19 12:57:49;;;;;;;14.57;4.10;;;;;;;;;;5003346;28;20259;-93
2022/06/19 13:00:30;;;;;;;16.60;3.55;;;;;;;;;;5043196;28;20069;-86
2022/06/19 13:03:01;;;;;;;19.45;3.90;;;;;;;;;;5037583;28;20140;-90
2022/06/19 13:05:36;;;;;;;13.15;3.70;;;;;;;;;;5039854;28;20080;-89
2022/06/19 13:08:07;;;;;;;13.30;4.10;;;;;;;;;;5036536;28;20458;-91
2022/06/19 13:10:37;;;;;;;12.82;3.63;;;;;;;;;;5036383;28;20140;-87
2022/06/19 13:13:31;;;;;;;13.30;4.28;;;;;;;;;;5037257;28;20045;-87
2022/06/19 13:16:00;;;;;;;10.38;3.60;;;;;;;;;;5035949;28;20282;-86
2022/06/19 13:18:27;;;;;;;14.90;3.95;;;;;;;;;;5035915;28;20508;-90
2022/06/19 13:20:58;;;;;;;17.45;3.97;;;;;;;;;;5036344;28;20055;-94
2022/06/19 13:23:46;;;;;;;11.70;3.90;;;;;;;;;;5035979;28;20041;-91
2022/06/19 13:29:40;;;;;;;22.40;4.38;;;;;;;;;;5037060;28;20521;-88
2022/06/19 13:32:22;;;;;;;17.58;3.78;;;;;;;;;;4999198;28;20136;-94
2022/06/19 13:34:56;;;;;;;12.85;3.97;;;;;;;;;;5035502;28;20049;-87
2022/06/19 13:37:32;;;;;;;19.80;4.45;;;;;;;;;;5035873;28;20088;-86
2022/06/19 13:39:59;;;;;;;15.38;4.35;;;;;;;;;;5035148;28;20069;-89
2022/06/19 13:42:29;;;;;;;22.02;4.75;;;;;;;;;;5034931;28;20140;-88
2022/06/19 13:45:06;;;;;;;19.10;4.47;;;;;;;;;;5035387;28;20053;-89
2022/06/19 13:47:40;;;;;;;16.23;4.03;;;;;;;;;;5035650;28;20478;-89
2022/06/19 13:50:16;;;;;;;13.60;4.28;;;;;;;;;;5035219;28;20135;-89
2022/06/19 13:52:57;;;;;;;20.63;4.68;;;;;;;;;;5034877;28;20137;-91
2022/06/19 13:55:40;;;;;;;20.02;4.07;;;;;;;;;;5035888;28;20558;-89
2022/06/19 13:58:10;;;;;;;13.38;3.90;;;;;;;;;;5035520;28;20136;-92
2022/06/19 14:00:52;;;;;;;19.05;4.90;;;;;;;;;;5037978;28;20111;-87
2022/06/19 14:06:26;;;;;;;15.38;4.00;;;;;;;;;;5055990;28;20132;-88
2022/06/19 14:09:02;;;;;;;18.13;4.55;;;;;;;;;;5038398;28;20044;-85
2022/06/19 14:12:03;;;;;;;16.50;4.40;;;;;;;;;;5038231;28;20068;-86
2022/06/19 14:14:25;;;;;;;23.52;4.25;;;;;;;;;;5055733;28;20143;-93
2022/06/19 14:16:59;;;;;;;15.40;4.43;;;;;;;;;;5038524;28;20095;-88
2022/06/19 14:19:35;;;;;;;15.40;4.85;;;;;;;;;;5038911;28;20052;-89
2022/06/19 14:22:12;;;;;;;11.13;4.40;;;;;;;;;;5038326;28;20396;-92
2022/06/19 14:24:58;;;;;;;23.48;4.50;;;;;;;;;;5038656;28;20059;-89
2022/06/19 14:27:40;;;;;;;22.17;4.35;;;;;;;;;;5038467;28;20145;-86
2022/06/19 14:30:15;;;;;;;17.67;5.00;;;;;;;;;;5037844;28;20544;-88
2022/06/19 14:32:46;;;;;;;18.92;4.90;;;;;;;;;;5037934;28;20076;-89
2022/06/19 14:35:19;;;;;;;19.40;4.70;;;;;;;;;;5038078;28;20140;-88
2022/06/19 14:37:51;;;;;;;14.90;4.70;;;;;;;;;;5038164;28;20412;-90
2022/06/19 14:40:21;;;;;;;13.45;3.92;;;;;;;;;;5038258;28;20485;-93
2022/06/19 14:42:51;;;;;;;14.13;4.70;;;;;;;;;;5038633;28;20076;-90
2022/06/19 14:45:19;;;;;;;12.07;4.30;;;;;;;;;;5039254;28;20409;-88
2022/06/19 14:48:05;;;;;;;13.15;4.32;;;;;;;;;;5057624;28;20045;-92
2022/06/19 14:50:39;;;;;;;15.27;4.57;;;;;;;;;;5042866;28;20549;-89
2022/06/19 14:53:09;;;;;;;16.20;4.35;;;;;;;;;;5037990;28;20135;-89
2022/06/19 14:55:41;;;;;;;15.80;4.57;;;;;;;;;;5038091;28;20052;-88
2022/06/19 14:58:14;;;;;;;15.38;4.43;;;;;;;;;;5037875;28;20139;-94
2022/06/19 15:00:41;;;;;;;;;;;;;;;;;;5032309;28;20057;-87
2022/06/19 15:03:30;;;;;;;15.88;4.75;;;;;;;;;;5050147;28;19959;-91
2022/06/19 15:06:03;;;;;;;18.50;4.65;;;;;;;;;;5035691;28;20049;-88
2022/06/19 15:08:33;;;;;;;15.40;4.70;;;;;;;;;;5046435;28;20044;-91
2022/06/19 15:11:03;;;;;;;18.25;4.10;;;;;;;;;;5038280;28;20049;-90
2022/06/19 15:13:30;;;;;;;15.20;4.43;;;;;;;;;;5037396;28;20049;-88